logo dgac
Martes 21 de Septiembre del 2021
Buscar por aerodromo o helipuerto
Ingrese nombre de aeródromo, localidad o designador OACI:

Aeródromo: Robinson Crusoe (PUB) (SCIR)

Ubicación: Juan Fernández, V Región, Chile (33º 39' 57'' S, 78º 55' 45'' W) Ver ubicación en el mapa

Pistas

Orientación Dimensión Pendiente Superficie Resistencia APCH THR RWY PAPI
14/32 1007 x 18 Tratamiento superficial asfáltico 7.500 kg No No
Horas de operación HJ
Elevación 132 m / 433 ft
Otra Información Adm : DGAC
Uso : PUB
TEL : 224392981 / 224392781
Ubicado a 10 km W Bahía Cumberland

RLS +2.0 RWY 32

Cámara de Aeródromo www.dgac.gob.cl

Otra información ver AIP-Chile Volumen I AD 3.9-9.1-J y VAC/RET


CCCM/FCCV Descargar
andera de Chile
Mapa de Robinson Crusoe  (PUB) (SCIR)

Último METAR

METAR SCIR 211000Z NIL

Último TAF

TAF SCIR 211100Z 2112/2124 20015KT 9999 BKN020 TX13/2118Z TN10/2112Z

Últimas fotos cámaras

Imagen aerodromo Robinson Crusoe  (PUB) (SCIR) S-Este tomada el 21-09-2021 10:59:35 Imagen aerodromo Robinson Crusoe  (PUB) (SCIR) N-Oeste tomada el 21-09-2021 10:58:01 Imagen aerodromo Robinson Crusoe  (PUB) (SCIR) N-Este tomada el 01-01-1970 12:00:00

Último NOTAM

B1351/21 NOTAMN Q)SCEZ/QNBAS/IV/BO/AE/000/999/3338S07850W025 A)SCIR B)2109210000 C)2110312359 E)NDB IRC FREQ 293KHZ U/S